sensor_id;sensor_type;location;lat;lon;timestamp;P1;durP1;ratioP1;P2;durP2;ratioP2
33864;SDS011;20159;51.072;13.526;2023-01-01T00:01:11;4.43;;;3.30;;
33864;SDS011;20159;51.072;13.526;2023-01-01T00:03:39;3.88;;;3.28;;
33864;SDS011;20159;51.072;13.526;2023-01-01T00:06:05;4.40;;;3.60;;
33864;SDS011;20159;51.072;13.526;2023-01-01T00:08:36;4.25;;;3.63;;
33864;SDS011;20159;51.072;13.526;2023-01-01T00:11:02;4.15;;;3.75;;
33864;SDS011;20159;51.072;13.526;2023-01-01T00:13:29;4.40;;;3.75;;
33864;SDS011;20159;51.072;13.526;2023-01-01T00:15:55;5.25;;;3.97;;
33864;SDS011;20159;51.072;13.526;2023-01-01T00:18:20;4.28;;;3.80;;
33864;SDS011;20159;51.072;13.526;2023-01-01T00:20:46;6.10;;;4.53;;
33864;SDS011;20159;51.072;13.526;2023-01-01T00:23:11;7.13;;;4.30;;
33864;SDS011;20159;51.072;13.526;2023-01-01T00:25:40;5.05;;;4.22;;
33864;SDS011;20159;51.072;13.526;2023-01-01T00:28:05;6.07;;;4.63;;
33864;SDS011;20159;51.072;13.526;2023-01-01T00:30:33;7.80;;;5.10;;
33864;SDS011;20159;51.072;13.526;2023-01-01T00:32:59;5.53;;;5.03;;
33864;SDS011;20159;51.072;13.526;2023-01-01T00:35:25;7.40;;;5.60;;
33864;SDS011;20159;51.072;13.526;2023-01-01T00:37:54;6.40;;;5.53;;
33864;SDS011;20159;51.072;13.526;2023-01-01T00:40:20;6.88;;;5.38;;
33864;SDS011;20159;51.072;13.526;2023-01-01T00:42:46;6.88;;;5.47;;
33864;SDS011;20159;51.072;13.526;2023-01-01T00:45:11;7.25;;;5.50;;
33864;SDS011;20159;51.072;13.526;2023-01-01T00:47:39;6.38;;;5.15;;
33864;SDS011;20159;51.072;13.526;2023-01-01T00:50:05;7.25;;;5.70;;
33864;SDS011;20159;51.072;13.526;2023-01-01T00:52:30;10.55;;;5.72;;
33864;SDS011;20159;51.072;13.526;2023-01-01T00:54:56;9.13;;;4.93;;
33864;SDS011;20159;51.072;13.526;2023-01-01T00:57:21;6.20;;;4.72;;
33864;SDS011;20159;51.072;13.526;2023-01-01T00:59:47;5.97;;;4.50;;
33864;SDS011;20159;51.072;13.526;2023-01-01T01:02:13;6.93;;;4.95;;
33864;SDS011;20159;51.072;13.526;2023-01-01T01:04:38;5.28;;;4.53;;
33864;SDS011;20159;51.072;13.526;2023-01-01T01:07:04;4.20;;;3.70;;
33864;SDS011;20159;51.072;13.526;2023-01-01T01:09:29;6.22;;;4.05;;
33864;SDS011;20159;51.072;13.526;2023-01-01T01:11:55;5.55;;;3.90;;
33864;SDS011;20159;51.072;13.526;2023-01-01T01:14:20;4.70;;;3.15;;
33864;SDS011;20159;51.072;13.526;2023-01-01T01:16:46;4.05;;;3.30;;
33864;SDS011;20159;51.072;13.526;2023-01-01T01:19:11;4.55;;;3.60;;
33864;SDS011;20159;51.072;13.526;2023-01-01T01:21:42;4.13;;;3.20;;
33864;SDS011;20159;51.072;13.526;2023-01-01T01:24:08;4.40;;;3.05;;
33864;SDS011;20159;51.072;13.526;2023-01-01T01:26:34;3.85;;;2.88;;
33864;SDS011;20159;51.072;13.526;2023-01-01T01:29:00;4.00;;;3.13;;
33864;SDS011;20159;51.072;13.526;2023-01-01T01:31:29;5.55;;;3.08;;
33864;SDS011;20159;51.072;13.526;2023-01-01T01:33:56;3.72;;;2.88;;
33864;SDS011;20159;51.072;13.526;2023-01-01T01:36:22;4.35;;;2.80;;
33864;SDS011;20159;51.072;13.526;2023-01-01T01:38:49;4.30;;;2.85;;
33864;SDS011;20159;51.072;13.526;2023-01-01T01:41:15;3.80;;;3.00;;
33864;SDS011;20159;51.072;13.526;2023-01-01T01:49:12;5.53;;;2.90;;
33864;SDS011;20159;51.072;13.526;2023-01-01T01:51:41;3.97;;;2.90;;
33864;SDS011;20159;51.072;13.526;2023-01-01T01:54:09;5.13;;;3.10;;
33864;SDS011;20159;51.072;13.526;2023-01-01T01:56:43;4.40;;;3.05;;
33864;SDS011;20159;51.072;13.526;2023-01-01T01:59:13;4.93;;;3.30;;
33864;SDS011;20159;51.072;13.526;2023-01-01T02:01:41;4.22;;;3.45;;
33864;SDS011;20159;51.072;13.526;2023-01-01T02:04:06;6.88;;;3.05;;
33864;SDS011;20159;51.072;13.526;2023-01-01T02:06:32;5.82;;;3.70;;
33864;SDS011;20159;51.072;13.526;2023-01-01T02:08:59;5.55;;;3.53;;
33864;SDS011;20159;51.072;13.526;2023-01-01T02:11:28;4.93;;;2.90;;
33864;SDS011;20159;51.072;13.526;2023-01-01T02:13:54;3.83;;;2.90;;
33864;SDS011;20159;51.072;13.526;2023-01-01T02:26:53;4.15;;;2.58;;
33864;SDS011;20159;51.072;13.526;2023-01-01T02:32:19;7.22;;;2.65;;
33864;SDS011;20159;51.072;13.526;2023-01-01T02:34:59;4.22;;;2.50;;
33864;SDS011;20159;51.072;13.526;2023-01-01T02:37:47;3.00;;;2.30;;
33864;SDS011;20159;51.072;13.526;2023-01-01T02:40:17;3.47;;;2.47;;
33864;SDS011;20159;51.072;13.526;2023-01-01T02:42:45;6.50;;;2.60;;
33864;SDS011;20159;51.072;13.526;2023-01-01T02:45:11;4.40;;;2.38;;
33864;SDS011;20159;51.072;13.526;2023-01-01T02:47:37;4.07;;;2.08;;
33864;SDS011;20159;51.072;13.526;2023-01-01T02:50:07;4.68;;;2.65;;
33864;SDS011;20159;51.072;13.526;2023-01-01T02:52:44;5.18;;;2.20;;
33864;SDS011;20159;51.072;13.526;2023-01-01T03:01:41;4.90;;;2.20;;
33864;SDS011;20159;51.072;13.526;2023-01-01T03:04:10;6.22;;;2.30;;
33864;SDS011;20159;51.072;13.526;2023-01-01T03:12:27;5.07;;;1.75;;
33864;SDS011;20159;51.072;13.526;2023-01-01T03:15:09;5.35;;;2.22;;
33864;SDS011;20159;51.072;13.526;2023-01-01T03:20:30;4.93;;;2.13;;
33864;SDS011;20159;51.072;13.526;2023-01-01T03:23:01;5.38;;;2.40;;
33864;SDS011;20159;51.072;13.526;2023-01-01T03:25:31;4.03;;;2.05;;
33864;SDS011;20159;51.072;13.526;2023-01-01T03:28:10;2.92;;;1.98;;
33864;SDS011;20159;51.072;13.526;2023-01-01T03:30:38;4.18;;;1.92;;
33864;SDS011;20159;51.072;13.526;2023-01-01T03:33:50;3.95;;;2.13;;
33864;SDS011;20159;51.072;13.526;2023-01-01T03:36:08;3.42;;;2.00;;
33864;SDS011;20159;51.072;13.526;2023-01-01T03:38:39;7.50;;;1.88;;
33864;SDS011;20159;51.072;13.526;2023-01-01T03:41:10;3.95;;;2.05;;
33864;SDS011;20159;51.072;13.526;2023-01-01T03:43:43;4.00;;;2.30;;
33864;SDS011;20159;51.072;13.526;2023-01-01T03:46:15;5.78;;;1.92;;
33864;SDS011;20159;51.072;13.526;2023-01-01T03:48:43;2.83;;;1.70;;
33864;SDS011;20159;51.072;13.526;2023-01-01T03:54:22;4.70;;;2.10;;
33864;SDS011;20159;51.072;13.526;2023-01-01T03:57:09;4.13;;;2.00;;
33864;SDS011;20159;51.072;13.526;2023-01-01T04:02:59;4.40;;;2.00;;
33864;SDS011;20159;51.072;13.526;2023-01-01T04:05:36;5.00;;;1.90;;
33864;SDS011;20159;51.072;13.526;2023-01-01T04:08:04;3.78;;;2.00;;
33864;SDS011;20159;51.072;13.526;2023-01-01T04:10:32;3.72;;;1.95;;
33864;SDS011;20159;51.072;13.526;2023-01-01T04:12:59;6.80;;;2.00;;
33864;SDS011;20159;51.072;13.526;2023-01-01T04:15:28;4.88;;;2.50;;
33864;SDS011;20159;51.072;13.526;2023-01-01T04:17:54;3.58;;;2.13;;
33864;SDS011;20159;51.072;13.526;2023-01-01T04:20:20;7.22;;;2.08;;
33864;SDS011;20159;51.072;13.526;2023-01-01T04:22:45;4.07;;;2.10;;
33864;SDS011;20159;51.072;13.526;2023-01-01T04:25:11;4.55;;;1.85;;
33864;SDS011;20159;51.072;13.526;2023-01-01T04:27:38;5.40;;;2.15;;
33864;SDS011;20159;51.072;13.526;2023-01-01T04:30:05;3.90;;;1.80;;
33864;SDS011;20159;51.072;13.526;2023-01-01T04:32:32;6.55;;;2.33;;
33864;SDS011;20159;51.072;13.526;2023-01-01T04:34:58;4.25;;;2.17;;
33864;SDS011;20159;51.072;13.526;2023-01-01T04:37:24;4.57;;;2.53;;
33864;SDS011;20159;51.072;13.526;2023-01-01T04:39:50;4.65;;;2.03;;
33864;SDS011;20159;51.072;13.526;2023-01-01T04:42:16;4.70;;;2.65;;
33864;SDS011;20159;51.072;13.526;2023-01-01T04:44:41;7.13;;;2.33;;
33864;SDS011;20159;51.072;13.526;2023-01-01T04:47:07;5.72;;;2.25;;
33864;SDS011;20159;51.072;13.526;2023-01-01T04:49:33;4.18;;;2.15;;
33864;SDS011;20159;51.072;13.526;2023-01-01T04:51:58;5.82;;;2.60;;
33864;SDS011;20159;51.072;13.526;2023-01-01T04:54:24;4.18;;;2.40;;
33864;SDS011;20159;51.072;13.526;2023-01-01T04:56:49;4.55;;;2.25;;
33864;SDS011;20159;51.072;13.526;2023-01-01T04:59:15;5.07;;;2.13;;
33864;SDS011;20159;51.072;13.526;2023-01-01T05:01:40;4.38;;;2.45;;
33864;SDS011;20159;51.072;13.526;2023-01-01T05:04:06;4.53;;;2.00;;
33864;SDS011;20159;51.072;13.526;2023-01-01T05:06:31;5.60;;;2.40;;
33864;SDS011;20159;51.072;13.526;2023-01-01T05:08:57;7.85;;;2.05;;
33864;SDS011;20159;51.072;13.526;2023-01-01T05:11:26;4.70;;;2.42;;
33864;SDS011;20159;51.072;13.526;2023-01-01T05:13:53;6.07;;;2.55;;
33864;SDS011;20159;51.072;13.526;2023-01-01T05:16:28;4.85;;;2.38;;
33864;SDS011;20159;51.072;13.526;2023-01-01T05:18:55;5.70;;;2.20;;
33864;SDS011;20159;51.072;13.526;2023-01-01T05:21:22;2.90;;;1.85;;
33864;SDS011;20159;51.072;13.526;2023-01-01T05:23:55;4.32;;;2.25;;
33864;SDS011;20159;51.072;13.526;2023-01-01T05:26:23;4.57;;;2.13;;
33864;SDS011;20159;51.072;13.526;2023-01-01T05:28:52;3.60;;;2.15;;
33864;SDS011;20159;51.072;13.526;2023-01-01T05:31:18;7.70;;;2.58;;
33864;SDS011;20159;51.072;13.526;2023-01-01T05:33:45;6.00;;;2.40;;
33864;SDS011;20159;51.072;13.526;2023-01-01T05:36:16;5.95;;;2.58;;
33864;SDS011;20159;51.072;13.526;2023-01-01T05:38:49;5.10;;;2.17;;
33864;SDS011;20159;51.072;13.526;2023-01-01T05:41:16;5.22;;;2.20;;
33864;SDS011;20159;51.072;13.526;2023-01-01T05:43:43;9.57;;;2.38;;
33864;SDS011;20159;51.072;13.526;2023-01-01T05:46:09;4.30;;;2.30;;
33864;SDS011;20159;51.072;13.526;2023-01-01T05:48:36;7.22;;;2.20;;
33864;SDS011;20159;51.072;13.526;2023-01-01T05:51:07;3.90;;;2.13;;
33864;SDS011;20159;51.072;13.526;2023-01-01T05:53:34;5.03;;;2.30;;
33864;SDS011;20159;51.072;13.526;2023-01-01T05:56:00;4.10;;;2.25;;
33864;SDS011;20159;51.072;13.526;2023-01-01T05:58:26;5.65;;;2.47;;
33864;SDS011;20159;51.072;13.526;2023-01-01T06:00:53;6.80;;;2.53;;
33864;SDS011;20159;51.072;13.526;2023-01-01T06:03:19;4.15;;;2.28;;
33864;SDS011;20159;51.072;13.526;2023-01-01T06:05:45;3.42;;;1.98;;
33864;SDS011;20159;51.072;13.526;2023-01-01T06:08:10;8.43;;;2.50;;
33864;SDS011;20159;51.072;13.526;2023-01-01T06:10:36;5.38;;;2.03;;
33864;SDS011;20159;51.072;13.526;2023-01-01T06:13:02;3.10;;;2.20;;
33864;SDS011;20159;51.072;13.526;2023-01-01T06:15:28;4.07;;;2.53;;
33864;SDS011;20159;51.072;13.526;2023-01-01T06:17:53;4.68;;;2.53;;
33864;SDS011;20159;51.072;13.526;2023-01-01T06:20:19;7.05;;;2.33;;
33864;SDS011;20159;51.072;13.526;2023-01-01T06:22:44;4.60;;;2.55;;
33864;SDS011;20159;51.072;13.526;2023-01-01T06:25:11;4.72;;;2.45;;
33864;SDS011;20159;51.072;13.526;2023-01-01T06:27:37;2.90;;;2.20;;
33864;SDS011;20159;51.072;13.526;2023-01-01T06:30:04;5.75;;;2.53;;
33864;SDS011;20159;51.072;13.526;2023-01-01T06:32:30;4.97;;;2.60;;
33864;SDS011;20159;51.072;13.526;2023-01-01T06:34:56;5.18;;;2.78;;
33864;SDS011;20159;51.072;13.526;2023-01-01T06:37:21;4.25;;;2.33;;
33864;SDS011;20159;51.072;13.526;2023-01-01T06:39:47;5.05;;;2.42;;
33864;SDS011;20159;51.072;13.526;2023-01-01T06:42:12;6.50;;;2.60;;
33864;SDS011;20159;51.072;13.526;2023-01-01T06:44:38;4.28;;;2.50;;
33864;SDS011;20159;51.072;13.526;2023-01-01T06:47:03;4.38;;;2.33;;
33864;SDS011;20159;51.072;13.526;2023-01-01T06:49:29;3.60;;;2.35;;
33864;SDS011;20159;51.072;13.526;2023-01-01T06:51:54;3.70;;;2.70;;
33864;SDS011;20159;51.072;13.526;2023-01-01T06:54:20;4.80;;;3.00;;
33864;SDS011;20159;51.072;13.526;2023-01-01T06:56:45;4.15;;;3.10;;
33864;SDS011;20159;51.072;13.526;2023-01-01T06:59:11;4.25;;;2.95;;
33864;SDS011;20159;51.072;13.526;2023-01-01T07:01:36;4.72;;;3.05;;
33864;SDS011;20159;51.072;13.526;2023-01-01T07:04:07;6.10;;;2.90;;
33864;SDS011;20159;51.072;13.526;2023-01-01T07:06:37;4.20;;;2.97;;
33864;SDS011;20159;51.072;13.526;2023-01-01T07:09:03;4.43;;;3.10;;
33864;SDS011;20159;51.072;13.526;2023-01-01T07:11:30;7.97;;;4.07;;
33864;SDS011;20159;51.072;13.526;2023-01-01T07:13:56;4.72;;;3.33;;
33864;SDS011;20159;51.072;13.526;2023-01-01T07:16:22;6.28;;;3.75;;
33864;SDS011;20159;51.072;13.526;2023-01-01T07:18:48;4.82;;;3.65;;
33864;SDS011;20159;51.072;13.526;2023-01-01T07:21:30;5.28;;;3.72;;
33864;SDS011;20159;51.072;13.526;2023-01-01T07:24:08;6.68;;;4.05;;
33864;SDS011;20159;51.072;13.526;2023-01-01T07:26:39;5.60;;;3.92;;
33864;SDS011;20159;51.072;13.526;2023-01-01T07:29:05;5.45;;;3.63;;
33864;SDS011;20159;51.072;13.526;2023-01-01T07:31:32;4.82;;;3.58;;
33864;SDS011;20159;51.072;13.526;2023-01-01T07:34:02;5.80;;;3.83;;
33864;SDS011;20159;51.072;13.526;2023-01-01T07:36:28;5.10;;;4.00;;
33864;SDS011;20159;51.072;13.526;2023-01-01T07:38:55;6.38;;;3.90;;
33864;SDS011;20159;51.072;13.526;2023-01-01T07:41:20;5.25;;;3.90;;
33864;SDS011;20159;51.072;13.526;2023-01-01T07:43:46;6.45;;;4.07;;
33864;SDS011;20159;51.072;13.526;2023-01-01T07:46:12;5.03;;;3.80;;
33864;SDS011;20159;51.072;13.526;2023-01-01T07:48:40;5.32;;;3.75;;
33864;SDS011;20159;51.072;13.526;2023-01-01T07:51:06;4.78;;;3.65;;
33864;SDS011;20159;51.072;13.526;2023-01-01T07:53:31;4.70;;;3.70;;
33864;SDS011;20159;51.072;13.526;2023-01-01T07:55:57;5.50;;;3.53;;
33864;SDS011;20159;51.072;13.526;2023-01-01T07:58:22;4.13;;;3.33;;
33864;SDS011;20159;51.072;13.526;2023-01-01T08:00:48;5.82;;;3.80;;
33864;SDS011;20159;51.072;13.526;2023-01-01T08:03:14;4.03;;;3.30;;
33864;SDS011;20159;51.072;13.526;2023-01-01T08:05:40;4.55;;;3.70;;
33864;SDS011;20159;51.072;13.526;2023-01-01T08:08:05;5.75;;;3.42;;
33864;SDS011;20159;51.072;13.526;2023-01-01T08:10:31;5.95;;;3.40;;
33864;SDS011;20159;51.072;13.526;2023-01-01T08:13:00;5.68;;;3.63;;
33864;SDS011;20159;51.072;13.526;2023-01-01T08:15:26;5.03;;;3.28;;
33864;SDS011;20159;51.072;13.526;2023-01-01T08:17:58;5.40;;;3.65;;
33864;SDS011;20159;51.072;13.526;2023-01-01T08:20:25;4.53;;;3.33;;
33864;SDS011;20159;51.072;13.526;2023-01-01T08:22:52;5.05;;;3.75;;
33864;SDS011;20159;51.072;13.526;2023-01-01T08:25:17;4.45;;;3.28;;
33864;SDS011;20159;51.072;13.526;2023-01-01T08:27:43;4.82;;;3.38;;
33864;SDS011;20159;51.072;13.526;2023-01-01T08:30:09;4.93;;;3.50;;
33864;SDS011;20159;51.072;13.526;2023-01-01T08:32:36;5.40;;;3.38;;
33864;SDS011;20159;51.072;13.526;2023-01-01T08:35:02;5.05;;;3.65;;
33864;SDS011;20159;51.072;13.526;2023-01-01T08:37:28;5.80;;;3.40;;
33864;SDS011;20159;51.072;13.526;2023-01-01T08:39:53;4.50;;;3.15;;
33864;SDS011;20159;51.072;13.526;2023-01-01T08:42:19;5.88;;;3.35;;
33864;SDS011;20159;51.072;13.526;2023-01-01T08:44:44;4.78;;;3.47;;
33864;SDS011;20159;51.072;13.526;2023-01-01T08:47:15;5.05;;;3.42;;
33864;SDS011;20159;51.072;13.526;2023-01-01T08:49:42;4.38;;;2.80;;
33864;SDS011;20159;51.072;13.526;2023-01-01T08:52:08;5.40;;;3.50;;
33864;SDS011;20159;51.072;13.526;2023-01-01T08:54:34;3.83;;;2.95;;
33864;SDS011;20159;51.072;13.526;2023-01-01T08:56:59;5.78;;;3.40;;
33864;SDS011;20159;51.072;13.526;2023-01-01T08:59:25;5.05;;;3.00;;
33864;SDS011;20159;51.072;13.526;2023-01-01T09:01:50;4.00;;;3.13;;
33864;SDS011;20159;51.072;13.526;2023-01-01T09:04:15;3.97;;;3.15;;
33864;SDS011;20159;51.072;13.526;2023-01-01T09:06:41;5.35;;;3.10;;
33864;SDS011;20159;51.072;13.526;2023-01-01T09:09:06;6.70;;;2.90;;
33864;SDS011;20159;51.072;13.526;2023-01-01T09:11:32;3.83;;;2.72;;
33864;SDS011;20159;51.072;13.526;2023-01-01T09:13:58;4.50;;;3.10;;
33864;SDS011;20159;51.072;13.526;2023-01-01T09:16:23;4.82;;;3.08;;
33864;SDS011;20159;51.072;13.526;2023-01-01T09:18:49;3.40;;;2.55;;
33864;SDS011;20159;51.072;13.526;2023-01-01T09:21:14;4.70;;;2.75;;
33864;SDS011;20159;51.072;13.526;2023-01-01T09:23:42;4.60;;;2.97;;
33864;SDS011;20159;51.072;13.526;2023-01-01T09:26:10;4.55;;;3.00;;
33864;SDS011;20159;51.072;13.526;2023-01-01T09:28:36;4.75;;;3.10;;
33864;SDS011;20159;51.072;13.526;2023-01-01T09:31:02;4.53;;;2.97;;
33864;SDS011;20159;51.072;13.526;2023-01-01T09:33:30;4.07;;;2.92;;
33864;SDS011;20159;51.072;13.526;2023-01-01T09:36:10;5.25;;;2.97;;
33864;SDS011;20159;51.072;13.526;2023-01-01T09:38:47;3.60;;;2.72;;
33864;SDS011;20159;51.072;13.526;2023-01-01T09:41:18;3.58;;;2.38;;
33864;SDS011;20159;51.072;13.526;2023-01-01T09:44:08;3.92;;;2.53;;
33864;SDS011;20159;51.072;13.526;2023-01-01T09:46:44;5.50;;;2.83;;
33864;SDS011;20159;51.072;13.526;2023-01-01T09:49:11;5.30;;;2.72;;
33864;SDS011;20159;51.072;13.526;2023-01-01T09:51:42;5.20;;;2.40;;
33864;SDS011;20159;51.072;13.526;2023-01-01T09:54:55;4.55;;;2.58;;
33864;SDS011;20159;51.072;13.526;2023-01-01T09:57:04;4.55;;;2.38;;
33864;SDS011;20159;51.072;13.526;2023-01-01T09:59:34;6.22;;;2.72;;
33864;SDS011;20159;51.072;13.526;2023-01-01T10:09:56;4.72;;;2.28;;
33864;SDS011;20159;51.072;13.526;2023-01-01T10:15:19;2.92;;;1.85;;
33864;SDS011;20159;51.072;13.526;2023-01-01T10:26:15;5.28;;;2.65;;
33864;SDS011;20159;51.072;13.526;2023-01-01T10:34:18;8.20;;;2.38;;
33864;SDS011;20159;51.072;13.526;2023-01-01T10:36:49;4.50;;;2.30;;
33864;SDS011;20159;51.072;13.526;2023-01-01T10:39:17;6.22;;;2.58;;
33864;SDS011;20159;51.072;13.526;2023-01-01T10:41:43;4.70;;;2.40;;
33864;SDS011;20159;51.072;13.526;2023-01-01T10:44:10;3.50;;;1.92;;
33864;SDS011;20159;51.072;13.526;2023-01-01T10:46:39;4.53;;;2.45;;
33864;SDS011;20159;51.072;13.526;2023-01-01T10:49:09;4.38;;;2.05;;
33864;SDS011;20159;51.072;13.526;2023-01-01T10:51:48;6.20;;;2.58;;
33864;SDS011;20159;51.072;13.526;2023-01-01T10:54:35;3.97;;;2.00;;
33864;SDS011;20159;51.072;13.526;2023-01-01T10:59:51;5.88;;;2.10;;
33864;SDS011;20159;51.072;13.526;2023-01-01T11:02:18;4.43;;;1.98;;
33864;SDS011;20159;51.072;13.526;2023-01-01T11:04:46;4.68;;;2.00;;
33864;SDS011;20159;51.072;13.526;2023-01-01T11:07:17;5.30;;;2.35;;
33864;SDS011;20159;51.072;13.526;2023-01-01T11:09:49;4.22;;;2.17;;
33864;SDS011;20159;51.072;13.526;2023-01-01T11:12:16;6.47;;;2.25;;
33864;SDS011;20159;51.072;13.526;2023-01-01T11:14:50;5.05;;;2.53;;
33864;SDS011;20159;51.072;13.526;2023-01-01T11:17:24;4.75;;;2.38;;
33864;SDS011;20159;51.072;13.526;2023-01-01T11:19:58;3.70;;;2.10;;
33864;SDS011;20159;51.072;13.526;2023-01-01T11:25:03;4.38;;;2.08;;
33864;SDS011;20159;51.072;13.526;2023-01-01T11:27:41;4.88;;;2.38;;
33864;SDS011;20159;51.072;13.526;2023-01-01T11:30:39;4.40;;;1.95;;
33864;SDS011;20159;51.072;13.526;2023-01-01T11:32:59;6.60;;;2.30;;
33864;SDS011;20159;51.072;13.526;2023-01-01T11:35:27;6.88;;;2.65;;
33864;SDS011;20159;51.072;13.526;2023-01-01T11:37:55;5.25;;;2.28;;
33864;SDS011;20159;51.072;13.526;2023-01-01T11:40:23;4.43;;;2.50;;
33864;SDS011;20159;51.072;13.526;2023-01-01T11:42:58;7.40;;;2.50;;
33864;SDS011;20159;51.072;13.526;2023-01-01T11:45:27;6.15;;;2.42;;
33864;SDS011;20159;51.072;13.526;2023-01-01T11:47:59;5.45;;;2.20;;
33864;SDS011;20159;51.072;13.526;2023-01-01T11:50:28;5.40;;;2.50;;
33864;SDS011;20159;51.072;13.526;2023-01-01T11:52:57;7.20;;;2.47;;
33864;SDS011;20159;51.072;13.526;2023-01-01T11:55:41;4.60;;;2.15;;
33864;SDS011;20159;51.072;13.526;2023-01-01T11:58:16;5.63;;;2.25;;
33864;SDS011;20159;51.072;13.526;2023-01-01T12:01:03;4.57;;;2.40;;
33864;SDS011;20159;51.072;13.526;2023-01-01T12:03:47;4.13;;;2.25;;
33864;SDS011;20159;51.072;13.526;2023-01-01T12:06:21;5.07;;;2.17;;
33864;SDS011;20159;51.072;13.526;2023-01-01T12:11:37;7.30;;;2.17;;
33864;SDS011;20159;51.072;13.526;2023-01-01T12:16:51;3.75;;;2.03;;
33864;SDS011;20159;51.072;13.526;2023-01-01T12:19:27;9.02;;;2.45;;
33864;SDS011;20159;51.072;13.526;2023-01-01T12:22:02;6.68;;;2.47;;
33864;SDS011;20159;51.072;13.526;2023-01-01T12:24:33;5.97;;;2.22;;
33864;SDS011;20159;51.072;13.526;2023-01-01T12:27:13;4.30;;;2.05;;
33864;SDS011;20159;51.072;13.526;2023-01-01T12:30:10;6.13;;;2.33;;
33864;SDS011;20159;51.072;13.526;2023-01-01T12:40:58;7.00;;;2.38;;
33864;SDS011;20159;51.072;13.526;2023-01-01T12:54:36;5.80;;;2.63;;
33864;SDS011;20159;51.072;13.526;2023-01-01T12:57:31;10.95;;;2.85;;
33864;SDS011;20159;51.072;13.526;2023-01-01T13:00:16;6.35;;;2.60;;
33864;SDS011;20159;51.072;13.526;2023-01-01T13:02:49;6.95;;;2.33;;
33864;SDS011;20159;51.072;13.526;2023-01-01T13:05:19;9.52;;;2.72;;
33864;SDS011;20159;51.072;13.526;2023-01-01T13:07:49;5.20;;;2.30;;
33864;SDS011;20159;51.072;13.526;2023-01-01T13:10:24;5.60;;;2.58;;
33864;SDS011;20159;51.072;13.526;2023-01-01T13:12:55;5.90;;;2.47;;
33864;SDS011;20159;51.072;13.526;2023-01-01T13:18:05;6.53;;;2.45;;
33864;SDS011;20159;51.072;13.526;2023-01-01T13:20:41;3.83;;;2.47;;
33864;SDS011;20159;51.072;13.526;2023-01-01T13:42:37;7.53;;;2.70;;
33864;SDS011;20159;51.072;13.526;2023-01-01T13:45:15;6.22;;;2.80;;
33864;SDS011;20159;51.072;13.526;2023-01-01T13:50:58;5.43;;;2.55;;
33864;SDS011;20159;51.072;13.526;2023-01-01T13:53:39;8.50;;;2.40;;
33864;SDS011;20159;51.072;13.526;2023-01-01T14:01:33;5.82;;;2.90;;
33864;SDS011;20159;51.072;13.526;2023-01-01T14:04:32;6.05;;;2.55;;
33864;SDS011;20159;51.072;13.526;2023-01-01T14:07:32;6.43;;;2.45;;
33864;SDS011;20159;51.072;13.526;2023-01-01T14:15:31;5.55;;;2.42;;
33864;SDS011;20159;51.072;13.526;2023-01-01T14:17:58;7.55;;;2.30;;
33864;SDS011;20159;51.072;13.526;2023-01-01T14:20:30;6.90;;;2.95;;
33864;SDS011;20159;51.072;13.526;2023-01-01T14:23:08;7.32;;;3.13;;
33864;SDS011;20159;51.072;13.526;2023-01-01T14:25:36;7.25;;;3.25;;
33864;SDS011;20159;51.072;13.526;2023-01-01T14:28:04;7.05;;;2.72;;
33864;SDS011;20159;51.072;13.526;2023-01-01T14:30:36;6.82;;;2.90;;
33864;SDS011;20159;51.072;13.526;2023-01-01T14:33:01;4.55;;;2.65;;
33864;SDS011;20159;51.072;13.526;2023-01-01T14:35:27;6.53;;;2.25;;
33864;SDS011;20159;51.072;13.526;2023-01-01T14:37:53;8.60;;;2.58;;
33864;SDS011;20159;51.072;13.526;2023-01-01T14:40:21;6.28;;;2.50;;
33864;SDS011;20159;51.072;13.526;2023-01-01T14:43:00;8.10;;;2.47;;
33864;SDS011;20159;51.072;13.526;2023-01-01T14:45:32;5.15;;;2.60;;
33864;SDS011;20159;51.072;13.526;2023-01-01T14:47:59;7.53;;;3.00;;
33864;SDS011;20159;51.072;13.526;2023-01-01T14:50:29;5.50;;;2.90;;
33864;SDS011;20159;51.072;13.526;2023-01-01T14:53:03;6.13;;;2.67;;
33864;SDS011;20159;51.072;13.526;2023-01-01T14:55:31;6.13;;;3.08;;
33864;SDS011;20159;51.072;13.526;2023-01-01T14:58:03;4.90;;;2.63;;
33864;SDS011;20159;51.072;13.526;2023-01-01T15:00:30;6.07;;;3.03;;
33864;SDS011;20159;51.072;13.526;2023-01-01T15:05:58;6.63;;;2.72;;
33864;SDS011;20159;51.072;13.526;2023-01-01T15:08:25;8.32;;;3.10;;
33864;SDS011;20159;51.072;13.526;2023-01-01T15:10:51;8.60;;;2.90;;
33864;SDS011;20159;51.072;13.526;2023-01-01T15:13:19;6.28;;;2.85;;
33864;SDS011;20159;51.072;13.526;2023-01-01T15:15:47;6.40;;;2.92;;
33864;SDS011;20159;51.072;13.526;2023-01-01T15:21:14;8.85;;;3.05;;
33864;SDS011;20159;51.072;13.526;2023-01-01T15:23:57;7.20;;;2.95;;
33864;SDS011;20159;51.072;13.526;2023-01-01T15:26:26;7.22;;;2.97;;
33864;SDS011;20159;51.072;13.526;2023-01-01T15:28:57;5.22;;;2.42;;
33864;SDS011;20159;51.072;13.526;2023-01-01T15:31:32;5.70;;;2.03;;
33864;SDS011;20159;51.072;13.526;2023-01-01T15:34:13;4.75;;;2.58;;
33864;SDS011;20159;51.072;13.526;2023-01-01T15:36:45;5.55;;;2.47;;
33864;SDS011;20159;51.072;13.526;2023-01-01T15:39:11;5.93;;;2.42;;
33864;SDS011;20159;51.072;13.526;2023-01-01T15:41:47;8.95;;;2.88;;
33864;SDS011;20159;51.072;13.526;2023-01-01T15:46:53;6.18;;;2.30;;
33864;SDS011;20159;51.072;13.526;2023-01-01T15:51:58;7.83;;;3.17;;
33864;SDS011;20159;51.072;13.526;2023-01-01T15:54:26;5.95;;;3.10;;
33864;SDS011;20159;51.072;13.526;2023-01-01T15:56:52;4.93;;;2.75;;
33864;SDS011;20159;51.072;13.526;2023-01-01T15:59:21;5.40;;;2.63;;
33864;SDS011;20159;51.072;13.526;2023-01-01T16:02:01;4.75;;;2.70;;
33864;SDS011;20159;51.072;13.526;2023-01-01T16:04:38;5.78;;;2.70;;
33864;SDS011;20159;51.072;13.526;2023-01-01T16:07:04;5.28;;;2.80;;
33864;SDS011;20159;51.072;13.526;2023-01-01T16:09:38;6.55;;;2.88;;
33864;SDS011;20159;51.072;13.526;2023-01-01T16:12:04;5.45;;;2.72;;
33864;SDS011;20159;51.072;13.526;2023-01-01T16:14:31;6.63;;;2.60;;
33864;SDS011;20159;51.072;13.526;2023-01-01T16:16:57;8.02;;;2.90;;
33864;SDS011;20159;51.072;13.526;2023-01-01T16:19:25;4.53;;;2.60;;
33864;SDS011;20159;51.072;13.526;2023-01-01T16:21:53;9.93;;;2.97;;
33864;SDS011;20159;51.072;13.526;2023-01-01T16:24:18;7.38;;;2.72;;
33864;SDS011;20159;51.072;13.526;2023-01-01T16:26:44;7.03;;;2.70;;
33864;SDS011;20159;51.072;13.526;2023-01-01T16:29:11;6.70;;;2.63;;
33864;SDS011;20159;51.072;13.526;2023-01-01T16:31:36;5.18;;;2.92;;
33864;SDS011;20159;51.072;13.526;2023-01-01T16:34:02;7.85;;;3.30;;
33864;SDS011;20159;51.072;13.526;2023-01-01T16:36:29;7.10;;;3.58;;
33864;SDS011;20159;51.072;13.526;2023-01-01T16:38:55;7.18;;;3.60;;
33864;SDS011;20159;51.072;13.526;2023-01-01T16:41:21;9.10;;;3.75;;
33864;SDS011;20159;51.072;13.526;2023-01-01T16:43:47;9.80;;;3.67;;
33864;SDS011;20159;51.072;13.526;2023-01-01T16:46:13;5.68;;;3.92;;
33864;SDS011;20159;51.072;13.526;2023-01-01T16:48:39;8.80;;;4.25;;
33864;SDS011;20159;51.072;13.526;2023-01-01T16:51:05;6.57;;;4.20;;
33864;SDS011;20159;51.072;13.526;2023-01-01T16:53:38;10.40;;;3.53;;
33864;SDS011;20159;51.072;13.526;2023-01-01T16:56:04;7.32;;;3.70;;
33864;SDS011;20159;51.072;13.526;2023-01-01T16:58:29;7.30;;;4.20;;
33864;SDS011;20159;51.072;13.526;2023-01-01T17:00:58;14.60;;;3.95;;
33864;SDS011;20159;51.072;13.526;2023-01-01T17:03:24;7.30;;;4.05;;
33864;SDS011;20159;51.072;13.526;2023-01-01T17:05:50;5.57;;;3.75;;
33864;SDS011;20159;51.072;13.526;2023-01-01T17:08:15;6.75;;;3.63;;